Timeline UpdatesTrip UpdatesNews PostsPvt PostsTravel TipsAdmin PostsConv PostsFollowed PostsChat RequestsBlog PostsPNR Posts

Disclaimer
Search
 
 
Sun Sep 21, 2014 03:33:07 ISTHomeTrainsΣChainsAtlasPNRForumGalleryNewsFAQTripsMembersLoginFeedback
No Recent News for this Train
Other Trains in the News **new
Latest...
.
Wed Nov 20, 2013 (01:29PM)
⇐ Return Journey: Train# 11078

11077/Jhelum Express

Time-Table HAS CHANGED.
Sep 02 (12:00AM)
Change Departure Station:
Change Arrival Station:
Post a Train Travel TipPost a Train Travel Tip **new
Post a Comment/Question/Picture/VideoPost a Comment/Question/Picture/Video
Inaugural Run
Sat Jan 01, 1977
Pantry/Catering
✓ Pantry Car Avbl
✓ Catering Avbl
Loco/Rake Reversals
DD/Daund Junction (7);
RSA - Rake Sharing
No RSA.
Rake/Coach Composition
From Pune-Daund Jn-->Loco, LDS, UR, A1, A2, B1, B2, B3, B4, B5, S1, PC, S2, S3 TO S10, UR, UR, MLTY; Daund Jn To Jammu Tawi--> Loco MLTY ,UR ,UR ,S10 To S2 ,PC ,S1,B5 -B1 ,A2 ,A1 ,UR ,LDS(DD-JAT)
Loco
PUNE-MMR: PUNE WDP-4D MMR-LDH : GZB/LDH WAP4 LDH -JAT :...
Read more...
LDH WDM3A (Single/Twins)
News    PNR    Forum    Time-Table    Availability    Fare Chart    Map    Arr/Dep History    Trips    Gallery    ΣChains    X/O    Timeline    
Travel Time: 1h 36m    0 halts    Distance: 113 km    Avg Speed: 70 km/hr
Type: Mail/Express
Zone: CR/Central
Departs @ 18:05
Platform# 3
SMTWTFS
Mathura Junction/MTJ 
Arrives @ 19:41
Platform# 2
SMTWTFS
Faridabad/FDB 

0 halts. 14 intermediate Stations between Mathura Junction and Faridabad

Show ALL intermediate Stations  Show Old Time-Table

#CodeStation NameX/OArrivesAvgDepartsAvgHaltPFDay#KmSpeedElevZoneAddress
1PUNEPune Junction (6)  -17:20-11-1457.666556mCRPune 411001, Maharashtra
2URIUruli (2)  17:46-17:47-1m21-1428.858553mCRDist. Pune 412202, Maharashtra
3DDDaund Junction (7)X18:35-18:50-15m51-1382.055521mCRNew Daund Dist. Pune 413801, Maharashtra
4ANGAhmadnagar (2)  20:22-20:25-3m11-1297.868650mCRAhmednagar 414001, Maharashtra
5BAPBelapur (2)X  21:24-21:25-1m11-1230.855541mCRShrirampur, Maharashtra
6KPGKopargaon (2)X  22:14-22:15-1m11-1186.139508mCRKopargaon 423601, Maharashtra
7MMRManmad Junction (6)23:20-23:30-10m31-1143.966580mCRManmad 423104, Maharashtra
8NGNNandgaon (3)O  00:03 23:53-00:05 23:55-2m21-1118.567476mCRNandgaon, Maharashtra
9CSNChalisgaon Junction (3)X  00:33-00:35-2m22-1076.482352mCRChalisgaon 424101, Maharashtra
10PCPachora Junction (4)X  01:08-01:10-2m22-1031.5102264mCRPachora 424201, Maharashtra
11JLJalgaon Junction (4)X  01:38-01:40-2m32-983.872213mCRJalgaon 425001, Maharashtra
12BSLBhusaval Junction (8)X  02:00-02:10-10m12-959.768208mCRBhusaval 425201, Maharashtra
13BAUBurhanpur (2)  02:58-03:00-2m22-905.249269mCRBurhanpur, Madhya Pradesh
14KNWKhandwa Junction (5)X  04:35 04:25-04:40 04:30-5m42-836.385310mCRKhandwa, Madhya Pradesh
15CAERChhanera (2)  05:02-05:04-2m22-790.987283mWCRChhanera, Madhya Pradesh
16HDHarda (3)  05:47-05:49-2m22-728.761289mWCRHarda, Madhya Pradesh
17TBNTimarni (2)  06:03-06:05-2m22-714.674308mWCRTimarni, Madhya Pradesh
18BPFBanapura (2)  06:28-06:30-2m12-686.450314mWCRBanapura, Madhya Pradesh
19ETItarsi Junction (7)XO  07:10-07:15-5m22-652.960329mWCRItarsi 461111, Madhya Pradesh
20HBDHoshangabad (2)X  07:33-07:35-2m12-634.864308mWCRHoshangabad, Madhya Pradesh
21HBJBhopal HabibGanj (5)X  08:38-08:40-2m32-567.415496mWCRHabibGanj, Madhya Pradesh
22BPLBhopal Junction (6)O  09:05-09:10-5m22-561.287497mWCRBhopal, Madhya Pradesh
23BHSVidisha (3)  09:47-09:49-2m12-507.781 WCRVidisha, Madhya Pradesh
24BAQGanj Basoda (4)X  10:18-10:20-2m22-468.450 WCRVidisha, Madhya Pradesh
25BINABina Junction (5)X  11:15-11:20-5m22-422.658414mWCRJn Pt - KATNI/GUNA/ BPL/JHS, Madhya Pradesh
26DUADhaura (3)X  11:56-11:58-2m--2-388.081407mNCRDhaura Tanda, Madhya Pradesh
27LARLalitpur (3)  12:19-12:21-2m32-359.786373mNCRLalitpur, Uttar Pradesh
28BABBabina (3)X  13:04 13:06-13:06 13:09-2 3m22-294.946285mNCRBabina, Uttar Pradesh
29JHSJhansi Junction (7)X  13:40 13:42-13:50 13:52-10m52-269.476259mNCRJhansi, Uttar Pradesh
30DBADabra (3)X  14:36-14:38-2m22-214.069 NCRDabra(District-Gwalior), Madhya Pradesh
31GWLGwalior Junction (4)  15:15-15:20-5m22-171.793214mNCRGwalior, Madhya Pradesh
32MRAMorena (3)  15:45-15:47-2m22-133.170176mNCRMorena, Madhya Pradesh
33DHODholpur Junction (3)  16:10-16:12-2m12-106.357177mNCRDholpur, Rajasthan
34AGCAgra Cantt. (6)X  17:07-17:12-5m32-53.734174mNCRAgra, Uttar Pradesh
35RKMRaja Ki Mandi (4)  17:19-17:21-2m12-49.776170mNCRAgra, Uttar Pradesh
36MTJMathura Junction (10)»X  18:04 18:00-18:07 18:05-3 5m320.071179mNCRMathura, Uttar Pradesh
37FDBFaridabad (4)•X  19:41-19:43-2m22113.232206mNRold Faridabad, Haryana
38NZMDelhi Hazrat Nizamuddin (7)  20:16 20:22-20:18 20:24-2m22134.021209mNRNew Delhi 110013, Delhi NCT
39NDLSNew Delhi (16)X  20:45-21:05-20m62141.315215mNRNew Delhi, Delhi NCT
40SZMDelhi Sabzi Mandi (2)  21:21-21:23-2m12145.563220mNRGulabi Bagh, Delhi NCT
41NURNarela (2)X  21:47 21:45-21:49 21:46-2 1m22168.768222mNRNarela, Delhi NCT
42SNPSonipat (3)  22:06 22:01-22:08 22:03-2m22185.864225mNRSonipat, Haryana
43GNUGanaurX  22:24 22:18-22:26 22:20-2m--2201.757222mNRGanaur, Haryana
44SMKSamalkha (3)22:40 22:33-22:41 22:35-1 2m--2214.051229mNRSamalkha, Haryana
45PNPPanipat Junction (5)  23:02 22:55-23:04 22:57-2m32231.042235mNRPanipat, Haryana
46GRAGharaunda (2)23:21-23:22-1m--2247.966244mNRGharaunda, Haryana
47KUNKarnal (3)  23:38-23:40-2m22265.448253mNRKarnal, Haryana
48TRRTaraori (2)  23:54 23:55-23:56-2 1m12277.563255mNRTaraori, Haryana
49KKDEKurukshetra Junction (3)X  00:29 00:16-00:31 00:18-2m13298.541260mNRKurukshetra, Haryana
50UMBAmbala Cantt. Junction (7)X  01:20-01:32-12m33340.635278mNRAmbala 133001, Haryana
51UBCAmbala City (3)X  01:45-01:46-1m33348.182273mNRNH-1, Haryana
52RPJRajpura Junction (3)XO  02:02 02:01-02:03-1 2m13368.651272mNRNH-1, Punjab
53SIRSirhind Junction (3)X  02:32-02:34-2m13393.577271mNRSirhind, Punjab
54KNNKhanna (3)X  02:48-02:49-1m13411.454269mNRNH 1, Punjab
55LDHLudhiana Junction (7)X03:35 03:37-03:45 03:47-10m33454.258246mNRLudhiana 141001, Punjab
56PGWPhagwara Junction (3)X  04:22 04:24-04:24 04:26-2m23489.870245mNRPhagwara, Punjab
57JRCJalandhar Cantt. Junction (3)  04:40-04:45-5m13506.155239mNRNear Rama Mandi, Punjab
58TDOTanda Urmar (3)  05:26 05:31-05:28 05:33-2m13548.461239mNRUrmar Tanda, Punjab
59DZADasuya (2)  05:43 05:48-05:45 05:50-2m23563.850251mNRDasuya distt. hoshiarpur, Punjab
60MEXMukerian (3)  06:03 06:08-06:05 06:10-2m23578.848257mNRMukerian distt. hosiharpur, Punjab
61PTKCPathankot Cantt (3)  07:00-07:05-5m23618.642328mNRPathankot By Pass Ph:0186-2251594, Punjab
62KTHUKathua (2)  07:38-07:40-2m13641.864396mNRdistt. kathua, Jammu and Kashmir
63HRNRHira Nagar (2)  08:06 08:07-08:08 08:09-2m--3670.699380mNRHiranagar, Jammu and Kashmir
64SMBXSamba (2)X  08:18-08:20-2m23685.425365mNRDist. Samba, Jammu and Kashmir
65VJPJVijaypur Jammu (2)XO  08:47-08:49-2m13696.818353mNRdistt. samba, Jammu and Kashmir
66JATJammu Tawi (3)  10:00--13718.1-337mNRJammu 180002, Jammu and Kashmir
Scroll to Top
Scroll to Bottom